Time;durP1;ratioP1;P1;durP2;ratioP2;P2;SDS_P1;SDS_P2;PMS_P1;PMS_P2;Temp;Humidity;BMP_temperature;BMP_pressure;BME280_temperature;BME280_humidity;BME280_pressure;Samples;Min_cycle;Max_cycle;Signal;HPM_P1;HPM_P2
2022/08/22 00:02:18;;;;;;;8.40;2.10;;;17.80;99.90;;;;;;4951273;29;20043;-68
2022/08/22 00:05:23;;;;;;;4.85;2.10;;;17.80;99.90;;;;;;4934583;29;20525;-68
2022/08/22 00:08:00;;;;;;;8.63;2.78;;;17.70;99.90;;;;;;4919695;29;20062;-68
2022/08/22 00:11:11;;;;;;;9.55;2.45;;;17.60;99.90;;;;;;4935223;29;20063;-68
2022/08/22 00:14:02;;;;;;;13.15;2.90;;;17.70;99.90;;;;;;4934719;29;20469;-68
2022/08/22 00:16:37;;;;;;;10.68;3.00;;;17.70;99.90;;;;;;4966009;28;20050;-68
2022/08/22 00:19:11;;;;;;;6.70;2.60;;;17.80;99.90;;;;;;4989745;28;20145;-68
2022/08/22 00:21:49;;;;;;;9.40;2.70;;;17.60;99.90;;;;;;4989687;28;20555;-68
2022/08/22 00:24:44;;;;;;;7.30;3.05;;;17.70;99.90;;;;;;4998913;28;20583;-68
2022/08/22 00:27:20;;;;;;;10.00;3.00;;;17.70;99.90;;;;;;5031437;28;20049;-68
2022/08/22 00:29:59;;;;;;;8.85;2.85;;;17.80;99.90;;;;;;5031158;28;20045;-67
2022/08/22 00:32:28;;;;;;;7.03;2.50;;;17.80;99.90;;;;;;5029977;28;20045;-68
2022/08/22 00:35:04;;;;;;;11.02;3.13;;;17.80;99.90;;;;;;5031116;28;20037;-68
2022/08/22 00:37:41;;;;;;;9.25;3.08;;;17.80;99.90;;;;;;5030036;28;20038;-68
2022/08/22 00:40:40;;;;;;;7.45;2.85;;;17.80;99.90;;;;;;5031171;28;20409;-68
2022/08/22 00:43:40;;;;;;;9.35;3.20;;;17.80;99.90;;;;;;5031264;28;20107;-68
2022/08/22 00:46:30;;;;;;;7.75;2.97;;;17.70;99.90;;;;;;5031052;28;20041;-67
2022/08/22 00:49:09;;;;;;;9.57;2.90;;;17.70;99.90;;;;;;5030889;28;20041;-68
2022/08/22 00:51:38;;;;;;;8.15;2.70;;;17.50;99.90;;;;;;5030940;28;20042;-68
2022/08/22 00:54:11;;;;;;;11.60;3.10;;;17.60;99.90;;;;;;5030821;28;20041;-67
2022/08/22 00:57:12;;;;;;;7.72;4.68;;;17.60;99.90;;;;;;5030870;28;20498;-68
2022/08/22 00:59:50;;;;;;;7.13;3.30;;;17.70;99.90;;;;;;5029752;28;20107;-68
2022/08/22 01:02:40;;;;;;;7.53;2.70;;;17.70;99.90;;;;;;5031087;28;20041;-67
2022/08/22 01:05:35;;;;;;;12.43;2.90;;;17.80;99.90;;;;;;5030672;28;20045;-68
2022/08/22 01:08:57;;;;;;;9.07;3.30;;;17.80;99.90;;;;;;5030660;28;20402;-68
2022/08/22 01:11:34;;;;;;;9.93;2.67;;;17.80;99.90;;;;;;4992058;28;20053;-67
2022/08/22 01:14:24;;;;;;;13.32;3.67;;;17.80;99.90;;;;;;5030353;28;20128;-67
2022/08/22 01:17:06;;;;;;;8.18;2.70;;;17.70;99.90;;;;;;5033367;28;20128;-68
2022/08/22 01:19:51;;;;;;;8.43;2.97;;;17.60;99.90;;;;;;5034901;28;20107;-68
2022/08/22 01:22:52;;;;;;;8.82;3.40;;;17.60;99.90;;;;;;5034866;28;20049;-68
2022/08/22 01:25:20;;;;;;;9.68;3.20;;;17.50;99.90;;;;;;5016625;28;20128;-68
2022/08/22 01:28:20;;;;;;;10.68;3.30;;;17.40;99.90;;;;;;5034668;28;20083;-68
2022/08/22 01:31:17;;;;;;;12.52;3.97;;;17.50;99.90;;;;;;5034462;28;20041;-68
2022/08/22 01:34:05;;;;;;;6.90;3.42;;;17.50;99.90;;;;;;5033313;28;20130;-67
2022/08/22 01:36:52;;;;;;;14.45;3.92;;;17.50;99.90;;;;;;5033173;28;20046;-68
2022/08/22 01:39:48;;;;;;;15.55;3.88;;;17.50;99.90;;;;;;5034654;28;20121;-68
2022/08/22 01:42:35;;;;;;;6.43;4.10;;;17.60;99.90;;;;;;5033328;28;20388;-68
2022/08/22 01:45:00;;;;;;;18.50;4.65;;;17.50;99.90;;;;;;5034140;28;20052;-68
2022/08/22 01:47:35;;;;;;;9.98;3.85;;;17.50;99.90;;;;;;5033260;28;20049;-68
2022/08/22 01:50:30;;;;;;;9.02;4.28;;;17.50;99.90;;;;;;5034311;28;20050;-68
2022/08/22 01:53:06;;;;;;;12.63;3.97;;;17.50;99.90;;;;;;5033215;28;20041;-68
2022/08/22 01:55:38;;;;;;;9.55;3.40;;;17.60;99.90;;;;;;5033822;28;20037;-68
2022/08/22 01:58:19;;;;;;;9.52;3.28;;;17.60;99.90;;;;;;5034033;28;20523;-68
2022/08/22 02:01:09;;;;;;;14.35;3.65;;;17.60;99.90;;;;;;5034122;28;20041;-68
2022/08/22 02:04:01;;;;;;;9.73;3.22;;;17.50;99.90;;;;;;5034074;28;20399;-68
2022/08/22 02:06:43;;;;;;;8.43;3.67;;;17.50;99.90;;;;;;5034268;28;20033;-68
2022/08/22 02:09:25;;;;;;;6.93;3.10;;;17.30;99.90;;;;;;5033734;28;20486;-67
2022/08/22 02:12:21;;;;;;;9.87;3.03;;;17.30;99.90;;;;;;5033880;28;20080;-68
2022/08/22 02:15:29;;;;;;;12.20;3.40;;;17.30;99.90;;;;;;5025070;28;20050;-67
2022/08/22 02:18:04;;;;;;;10.43;3.40;;;17.40;99.90;;;;;;5033877;28;20461;-67
2022/08/22 02:20:46;;;;;;;7.05;3.10;;;17.20;99.90;;;;;;5032350;28;20034;-67
2022/08/22 02:23:21;;;;;;;7.60;3.80;;;17.20;99.90;;;;;;5033840;28;20112;-68
2022/08/22 02:25:52;;;;;;;7.28;3.67;;;17.10;99.90;;;;;;5033405;28;20042;-67
2022/08/22 02:28:41;;;;;;;7.50;3.80;;;17.20;99.90;;;;;;5032985;28;20041;-68
2022/08/22 02:31:13;;;;;;;9.63;4.03;;;17.20;99.90;;;;;;5033363;28;20044;-68
2022/08/22 02:33:45;;;;;;;13.02;4.65;;;17.30;99.90;;;;;;5033641;28;20398;-68
2022/08/22 02:36:32;;;;;;;15.90;4.43;;;17.30;99.90;;;;;;5033545;28;20411;-68
2022/08/22 02:39:12;;;;;;;9.27;4.18;;;17.30;99.90;;;;;;5033389;28;20280;-68
2022/08/22 02:42:09;;;;;;;9.38;3.90;;;17.30;99.90;;;;;;5033163;28;20069;-68
2022/08/22 02:44:40;;;;;;;10.88;3.70;;;17.40;99.90;;;;;;5033081;28;20526;-68
2022/08/22 02:47:26;;;;;;;11.52;4.32;;;17.40;99.90;;;;;;5031923;28;20037;-68
2022/08/22 02:49:56;;;;;;;6.30;4.03;;;17.40;99.90;;;;;;5031690;28;20117;-68
2022/08/22 02:52:45;;;;;;;10.48;4.75;;;17.10;99.90;;;;;;5015494;28;20104;-68
2022/08/22 02:55:20;;;;;;;11.75;4.43;;;17.00;99.90;;;;;;5031557;28;20037;-68
2022/08/22 02:58:13;;;;;;;10.30;4.10;;;17.10;99.90;;;;;;5031759;28;20045;-68
2022/08/22 03:01:02;;;;;;;10.27;4.45;;;17.10;99.90;;;;;;5031671;28;20054;-68
2022/08/22 03:03:34;;;;;;;10.20;4.13;;;17.10;99.90;;;;;;5029864;28;20628;-68
2022/08/22 03:06:40;;;;;;;9.30;4.28;;;17.10;99.90;;;;;;5032641;28;20521;-68
2022/08/22 03:09:15;;;;;;;9.50;4.00;;;17.20;99.90;;;;;;5031497;28;20045;-68
2022/08/22 03:11:58;;;;;;;9.18;3.78;;;17.20;99.90;;;;;;5031360;28;20124;-68
2022/08/22 03:14:30;;;;;;;9.63;3.80;;;17.20;99.90;;;;;;5032490;28;20041;-68
2022/08/22 03:17:20;;;;;;;10.40;3.92;;;17.20;99.90;;;;;;5031239;28;20052;-68
2022/08/22 03:19:54;;;;;;;14.43;4.25;;;17.30;99.90;;;;;;5032721;28;20436;-68
2022/08/22 03:22:49;;;;;;;9.25;4.50;;;17.10;99.90;;;;;;5032642;28;20049;-68
2022/08/22 03:25:30;;;;;;;11.35;4.55;;;17.00;99.90;;;;;;5032178;28;20045;-68
2022/08/22 03:28:04;;;;;;;8.23;4.50;;;16.90;99.90;;;;;;5032356;28;20517;-68
2022/08/22 03:30:56;;;;;;;9.02;4.25;;;16.90;99.90;;;;;;5032451;28;20037;-68
2022/08/22 03:33:24;;;;;;;9.68;4.15;;;16.90;99.90;;;;;;5032244;28;20073;-68
2022/08/22 03:36:01;;;;;;;9.00;4.15;;;16.90;99.90;;;;;;5031888;28;20033;-69
2022/08/22 03:38:33;;;;;;;8.23;4.47;;;17.00;99.90;;;;;;5030191;28;20398;-68
2022/08/22 03:41:26;;;;;;;8.07;4.20;;;17.00;99.90;;;;;;5032212;28;20129;-68
2022/08/22 03:44:17;;;;;;;9.68;3.35;;;17.20;99.90;;;;;;5031864;28;20048;-68
2022/08/22 03:47:08;;;;;;;13.90;4.03;;;17.20;99.90;;;;;;5031008;28;20049;-68
2022/08/22 03:50:03;;;;;;;11.48;4.43;;;17.10;99.90;;;;;;5030804;28;20510;-68
2022/08/22 03:53:06;;;;;;;11.40;4.18;;;17.00;99.90;;;;;;5031931;28;20068;-68
2022/08/22 03:55:37;;;;;;;10.43;3.97;;;16.90;99.90;;;;;;5031499;28;20045;-68
2022/08/22 03:58:46;;;;;;;11.77;4.22;;;16.90;99.90;;;;;;5030441;28;20498;-68
2022/08/22 04:01:30;;;;;;;12.93;4.22;;;16.90;99.90;;;;;;5030780;28;20068;-67
2022/08/22 04:04:17;;;;;;;10.63;4.88;;;16.90;99.90;;;;;;5030232;28;20049;-68
2022/08/22 04:07:18;;;;;;;12.65;4.43;;;16.90;99.90;;;;;;5031681;28;20460;-68
2022/08/22 04:10:20;;;;;;;11.13;4.40;;;16.90;99.90;;;;;;5031398;28;20056;-68
2022/08/22 04:13:22;;;;;;;13.13;4.63;;;16.90;99.90;;;;;;5031676;28;20049;-68
2022/08/22 04:16:04;;;;;;;8.77;4.73;;;17.10;99.90;;;;;;5031477;28;20402;-68
2022/08/22 04:18:48;;;;;;;15.70;5.15;;;17.00;99.90;;;;;;5030219;28;20115;-68
2022/08/22 04:21:41;;;;;;;12.40;5.40;;;17.00;99.90;;;;;;5029654;28;20049;-68
2022/08/22 04:24:50;;;;;;;19.13;5.30;;;16.90;99.90;;;;;;5027380;28;20458;-68
2022/08/22 04:27:21;;;;;;;9.20;4.85;;;16.90;99.90;;;;;;5020048;28;20502;-68
2022/08/22 04:30:14;;;;;;;11.68;5.18;;;16.90;99.90;;;;;;5029273;28;20099;-68
2022/08/22 04:32:47;;;;;;;10.63;4.70;;;16.90;99.90;;;;;;5030270;28;20041;-68
2022/08/22 04:35:23;;;;;;;13.75;4.45;;;16.90;99.90;;;;;;5029135;28;20037;-68
2022/08/22 04:37:51;;;;;;;12.68;5.75;;;16.90;99.90;;;;;;5031188;28;20175;-68
2022/08/22 04:40:37;;;;;;;10.63;4.55;;;16.80;99.90;;;;;;5030956;28;20041;-67
2022/08/22 04:43:14;;;;;;;12.75;4.50;;;16.80;99.90;;;;;;5030087;28;20049;-68
2022/08/22 04:45:49;;;;;;;10.40;4.47;;;16.90;99.90;;;;;;5029781;28;20041;-68
2022/08/22 04:48:30;;;;;;;16.17;5.20;;;16.80;99.90;;;;;;5031080;28;20053;-68
2022/08/22 04:51:12;;;;;;;12.63;5.20;;;16.80;99.90;;;;;;5030717;28;20049;-68
2022/08/22 04:53:55;;;;;;;14.63;5.25;;;16.80;99.90;;;;;;5031134;28;20072;-68
2022/08/22 04:56:35;;;;;;;11.35;5.03;;;16.80;99.90;;;;;;5029984;28;20449;-68
2022/08/22 04:59:07;;;;;;;12.90;4.60;;;16.80;99.90;;;;;;5029877;28;20041;-68
2022/08/22 05:01:52;;;;;;;8.70;4.68;;;16.80;99.90;;;;;;5030853;28;20560;-68
2022/08/22 05:04:25;;;;;;;12.10;4.82;;;16.80;99.90;;;;;;5029305;28;20052;-68
2022/08/22 05:07:23;;;;;;;15.63;5.22;;;16.90;99.90;;;;;;5030777;28;20132;-68
2022/08/22 05:10:00;;;;;;;14.80;5.35;;;16.80;99.90;;;;;;5026981;28;20097;-68
2022/08/22 05:12:38;;;;;;;9.77;4.28;;;16.90;99.90;;;;;;5030960;28;20042;-68
2022/08/22 05:15:18;;;;;;;10.95;4.55;;;16.80;99.90;;;;;;5030516;28;20083;-68
2022/08/22 05:17:47;;;;;;;13.18;5.22;;;16.90;99.90;;;;;;5029402;28;20049;-68
2022/08/22 05:20:17;;;;;;;12.63;4.57;;;16.90;99.90;;;;;;5030888;28;20041;-68
2022/08/22 05:22:45;;;;;;;13.57;4.65;;;16.80;99.90;;;;;;5030780;28;20041;-68
2022/08/22 05:25:16;;;;;;;15.50;5.25;;;16.80;99.90;;;;;;5030572;28;20441;-68
2022/08/22 05:27:50;;;;;;;17.48;4.38;;;16.80;99.90;;;;;;5030740;28;20049;-68
2022/08/22 05:30:23;;;;;;;15.30;4.30;;;16.90;99.90;;;;;;5029163;28;20380;-68
2022/08/22 05:32:53;;;;;;;9.73;4.80;;;17.00;99.90;;;;;;5029516;28;20129;-68
2022/08/22 05:35:39;;;;;;;10.18;4.38;;;17.00;99.90;;;;;;5030485;28;20080;-68
2022/08/22 05:38:08;;;;;;;7.95;4.25;;;17.00;99.90;;;;;;5030508;28;20072;-68
2022/08/22 05:40:36;;;;;;;15.57;4.93;;;17.00;99.90;;;;;;5029141;28;20045;-68
2022/08/22 05:43:04;;;;;;;19.15;5.15;;;17.00;99.90;;;;;;5030445;28;20562;-68
2022/08/22 05:45:33;;;;;;;10.98;4.85;;;17.10;99.90;;;;;;5028920;28;20103;-68
2022/08/22 05:48:15;;;;;;;10.63;4.43;;;17.10;99.90;;;;;;5029394;28;20095;-68
2022/08/22 05:50:55;;;;;;;9.93;4.20;;;17.10;99.90;;;;;;5030453;28;20113;-68
2022/08/22 05:53:39;;;;;;;13.27;4.78;;;17.10;99.90;;;;;;5029078;28;20080;-68
2022/08/22 05:56:25;;;;;;;15.45;4.47;;;17.10;99.90;;;;;;5030410;28;20052;-67
2022/08/22 05:59:01;;;;;;;11.40;4.72;;;17.10;99.90;;;;;;5030471;28;20041;-68
2022/08/22 06:01:59;;;;;;;12.85;4.18;;;17.10;99.90;;;;;;5030584;28;20680;-68
2022/08/22 06:04:35;;;;;;;10.05;4.40;;;17.20;99.90;;;;;;5017039;28;20064;-67
2022/08/22 06:07:13;;;;;;;11.57;4.80;;;17.20;99.90;;;;;;5034050;28;20072;-67
2022/08/22 06:09:47;;;;;;;12.00;3.97;;;17.20;99.90;;;;;;5033766;28;20088;-68
2022/08/22 06:12:29;;;;;;;18.20;4.20;;;17.20;99.90;;;;;;5034091;28;20044;-67
2022/08/22 06:15:26;;;;;;;16.23;4.90;;;17.20;99.90;;;;;;5033751;28;20045;-67
2022/08/22 06:18:04;;;;;;;11.35;4.20;;;17.30;99.90;;;;;;5033869;28;20069;-68
2022/08/22 06:20:38;;;;;;;10.70;4.43;;;17.30;99.90;;;;;;5032298;28;20049;-67
2022/08/22 06:23:06;;;;;;;15.88;4.45;;;17.30;99.90;;;;;;5033912;28;20402;-68
2022/08/22 06:25:33;;;;;;;13.52;4.95;;;17.30;99.90;;;;;;5033485;28;20064;-68
2022/08/22 06:28:07;;;;;;;15.77;4.38;;;17.40;99.90;;;;;;5033681;28;20116;-68
2022/08/22 06:30:34;;;;;;;15.05;4.50;;;17.40;99.90;;;;;;5033517;28;20037;-68
2022/08/22 06:33:05;;;;;;;15.52;4.40;;;17.40;99.90;;;;;;5033434;28;20502;-68
2022/08/22 06:38:21;;;;;;;15.68;5.07;;;17.50;99.90;;;;;;5032088;28;20056;-68
2022/08/22 06:40:50;;;;;;;11.57;4.43;;;17.50;99.90;;;;;;5033389;28;20041;-68
2022/08/22 06:43:17;;;;;;;11.05;4.82;;;17.50;99.90;;;;;;5031937;28;20076;-68
2022/08/22 06:45:43;;;;;;;14.68;4.70;;;17.60;99.90;;;;;;5015313;28;20034;-68
2022/08/22 06:48:08;;;;;;;14.48;6.47;;;17.60;99.90;;;;;;5022392;28;20099;-67
2022/08/22 06:50:35;;;;;;;13.93;4.38;;;17.60;99.90;;;;;;5013281;28;20141;-67
2022/08/22 06:53:05;;;;;;;18.17;4.88;;;17.60;99.90;;;;;;5013261;28;20496;-68
2022/08/22 06:55:31;;;;;;;13.45;4.65;;;17.70;99.90;;;;;;5012972;28;20038;-68
2022/08/22 06:58:10;;;;;;;16.10;4.60;;;17.70;99.90;;;;;;5012221;28;20042;-68
2022/08/22 07:00:39;;;;;;;16.25;4.80;;;17.80;99.90;;;;;;5013289;28;20030;-67
2022/08/22 07:03:29;;;;;;;15.35;4.55;;;17.80;99.90;;;;;;5013076;28;20534;-68
2022/08/22 07:05:56;;;;;;;19.27;4.80;;;17.80;99.90;;;;;;5011745;28;20488;-69
2022/08/22 07:08:24;;;;;;;17.83;4.90;;;17.80;99.90;;;;;;5011357;28;20041;-68
2022/08/22 07:11:13;;;;;;;15.60;4.82;;;17.90;99.90;;;;;;5011527;28;20041;-69
2022/08/22 07:13:47;;;;;;;14.05;4.68;;;17.90;99.90;;;;;;5011613;28;20042;-69
2022/08/22 07:16:13;;;;;;;15.07;4.10;;;17.90;99.90;;;;;;5012912;28;20045;-69
2022/08/22 07:18:48;;;;;;;12.40;4.38;;;17.90;99.90;;;;;;5012734;28;20057;-69
2022/08/22 07:21:24;;;;;;;12.57;4.35;;;17.90;99.90;;;;;;5011428;28;20049;-69
2022/08/22 07:23:51;;;;;;;15.23;4.07;;;17.90;99.90;;;;;;5011225;28;20048;-69
2022/08/22 07:26:28;;;;;;;16.00;4.32;;;18.00;99.90;;;;;;5012785;28;20053;-69
2022/08/22 07:28:56;;;;;;;9.85;4.40;;;18.00;99.90;;;;;;5011333;28;20065;-69
2022/08/22 07:31:27;;;;;;;11.45;4.72;;;18.00;99.90;;;;;;5011195;28;20121;-69
2022/08/22 07:33:56;;;;;;;15.30;4.65;;;18.10;99.90;;;;;;5011236;28;20045;-69
2022/08/22 07:36:45;;;;;;;16.65;4.25;;;18.10;99.90;;;;;;5012699;28;20045;-69
2022/08/22 07:39:49;;;;;;;20.48;4.88;;;18.10;99.90;;;;;;5012605;28;20495;-68
2022/08/22 07:42:17;;;;;;;15.57;4.15;;;18.20;99.90;;;;;;4976562;28;20061;-69
2022/08/22 07:44:54;;;;;;;14.30;4.45;;;18.20;99.90;;;;;;5012235;28;20099;-69
2022/08/22 07:47:23;;;;;;;16.98;4.35;;;18.20;99.90;;;;;;5012468;28;20491;-69
2022/08/22 07:50:02;;;;;;;13.65;4.65;;;18.30;99.90;;;;;;5010756;28;20045;-68
2022/08/22 07:52:37;;;;;;;21.67;4.82;;;18.30;99.90;;;;;;5011272;28;20396;-69
2022/08/22 07:55:24;;;;;;;14.68;4.28;;;18.30;99.90;;;;;;5012104;28;20046;-69
2022/08/22 07:57:59;;;;;;;17.13;4.30;;;18.40;99.90;;;;;;5012161;28;20038;-69
2022/08/22 08:00:27;;;;;;;9.50;4.00;;;18.50;99.90;;;;;;5010751;28;20060;-68
2022/08/22 08:02:59;;;;;;;15.32;4.30;;;18.50;99.90;;;;;;5010777;28;20037;-69
2022/08/22 08:05:29;;;;;;;12.15;4.03;;;18.50;99.90;;;;;;5010523;28;20053;-68
2022/08/22 08:07:56;;;;;;;15.73;4.10;;;18.60;99.90;;;;;;5012029;28;20077;-68
2022/08/22 08:10:26;;;;;;;13.45;4.32;;;18.60;99.90;;;;;;5011734;28;20046;-68
2022/08/22 08:12:58;;;;;;;12.05;4.20;;;18.70;99.90;;;;;;4994210;28;20048;-67
2022/08/22 08:15:24;;;;;;;8.40;3.33;;;18.60;99.90;;;;;;5011853;28;20033;-67
2022/08/22 08:17:56;;;;;;;12.75;4.05;;;18.80;99.90;;;;;;5011984;28;20045;-67
2022/08/22 08:20:24;;;;;;;10.85;4.10;;;18.80;99.90;;;;;;5011857;28;20041;-68
2022/08/22 08:22:52;;;;;;;10.95;3.45;;;18.80;99.90;;;;;;5010529;28;20050;-67
2022/08/22 08:25:23;;;;;;;15.25;3.95;;;18.90;99.90;;;;;;5010850;28;20603;-67
2022/08/22 08:30:51;;;;;;;10.73;3.63;;;19.00;99.90;;;;;;5011676;28;20054;-67
2022/08/22 08:33:20;;;;;;;11.38;3.95;;;19.10;99.90;;;;;;5011585;28;20077;-67
2022/08/22 08:35:58;;;;;;;13.48;4.20;;;19.10;99.90;;;;;;5011147;28;20037;-67
2022/08/22 08:38:36;;;;;;;16.58;3.97;;;19.20;99.90;;;;;;5011331;28;20037;-67
2022/08/22 08:41:37;;;;;;;13.57;3.35;;;19.20;99.90;;;;;;5011442;28;20073;-67
2022/08/22 08:44:36;;;;;;;13.50;4.28;;;19.30;99.90;;;;;;5011042;28;20038;-68
2022/08/22 08:47:31;;;;;;;20.55;3.85;;;19.30;99.90;;;;;;5009986;28;20129;-67
2022/08/22 08:50:15;;;;;;;14.07;3.67;;;19.40;99.90;;;;;;5009902;28;20073;-67
2022/08/22 08:52:57;;;;;;;11.52;3.50;;;19.40;99.90;;;;;;5010266;28;20395;-67
2022/08/22 08:55:32;;;;;;;14.02;4.03;;;19.40;99.90;;;;;;5009383;28;20073;-67
2022/08/22 08:58:06;;;;;;;17.42;3.33;;;19.50;99.90;;;;;;5009943;28;20512;-67
2022/08/22 09:00:49;;;;;;;13.70;3.40;;;19.60;99.90;;;;;;5010034;28;20041;-67
2022/08/22 09:03:36;;;;;;;9.23;2.75;;;19.60;99.90;;;;;;5009822;28;20439;-67
2022/08/22 09:06:31;;;;;;;15.15;3.65;;;19.70;99.90;;;;;;5009883;28;20381;-67
2022/08/22 09:09:23;;;;;;;11.73;3.50;;;19.80;99.90;;;;;;5010921;28;20045;-67
2022/08/22 09:12:07;;;;;;;16.30;3.63;;;19.80;99.90;;;;;;5011206;28;20048;-67
2022/08/22 09:14:54;;;;;;;11.20;3.20;;;19.80;99.90;;;;;;5010827;28;20085;-67
2022/08/22 09:17:43;;;;;;;9.52;3.10;;;19.80;99.90;;;;;;5009736;28;20045;-68
2022/08/22 09:20:40;;;;;;;16.80;3.80;;;19.80;99.90;;;;;;4993347;28;20050;-67
2022/08/22 09:23:31;;;;;;;13.88;3.45;;;19.90;99.90;;;;;;5010901;28;20508;-67
2022/08/22 09:26:13;;;;;;;9.73;2.83;;;20.00;99.90;;;;;;5010647;28;20501;-67
2022/08/22 09:28:42;;;;;;;14.25;3.28;;;20.10;99.90;;;;;;5011015;28;20046;-67
2022/08/22 09:31:11;;;;;;;8.93;2.85;;;20.20;99.90;;;;;;5009534;28;20038;-67
2022/08/22 09:33:50;;;;;;;15.40;3.58;;;20.20;99.90;;;;;;5010881;28;20451;-67
2022/08/22 09:36:25;;;;;;;12.05;2.35;;;20.30;99.90;;;;;;5009867;28;20100;-67
2022/08/22 09:38:56;;;;;;;12.23;2.70;;;20.30;99.90;;;;;;5014680;28;20049;-67
2022/08/22 09:41:58;;;;;;;9.88;3.20;;;20.40;99.90;;;;;;5013365;28;20141;-67
2022/08/22 09:44:31;;;;;;;15.82;3.50;;;20.50;99.90;;;;;;5013118;28;20061;-67
2022/08/22 09:47:25;;;;;;;12.40;3.15;;;20.70;99.90;;;;;;5014622;28;20516;-67
2022/08/22 09:50:12;;;;;;;10.50;2.85;;;20.60;99.90;;;;;;5013158;28;20056;-67
2022/08/22 09:53:22;;;;;;;8.05;2.92;;;20.60;99.90;;;;;;5013205;28;20579;-67
2022/08/22 09:55:53;;;;;;;9.23;2.83;;;20.70;99.90;;;;;;5014287;28;20050;-67
2022/08/22 09:58:58;;;;;;;15.75;3.10;;;20.70;99.90;;;;;;5014388;28;20066;-68
2022/08/22 10:01:43;;;;;;;14.55;3.15;;;20.80;99.90;;;;;;5011143;28;20084;-67
2022/08/22 10:04:41;;;;;;;9.23;2.75;;;20.70;99.90;;;;;;5014155;28;20046;-67
2022/08/22 10:07:23;;;;;;;7.28;2.75;;;20.80;99.90;;;;;;5013040;28;20435;-70
2022/08/22 10:10:14;;;;;;;10.82;2.85;;;20.80;99.90;;;;;;5014030;28;20046;-69
2022/08/22 10:12:58;;;;;;;10.32;3.50;;;20.80;99.90;;;;;;5014098;28;20045;-68
2022/08/22 10:15:33;;;;;;;15.30;3.15;;;20.80;99.90;;;;;;5012425;28;20088;-68
2022/08/22 10:18:05;;;;;;;10.35;2.65;;;20.90;99.90;;;;;;5014055;28;20038;-67
2022/08/22 10:20:57;;;;;;;11.33;2.33;;;20.80;99.90;;;;;;5013955;28;20042;-68
2022/08/22 10:23:38;;;;;;;12.77;2.78;;;21.00;99.90;;;;;;5007328;28;20053;-68
2022/08/22 10:26:33;;;;;;;11.35;2.92;;;21.10;99.90;;;;;;5016047;28;20496;-68
2022/08/22 10:29:25;;;;;;;8.25;2.40;;;21.10;99.90;;;;;;5013677;28;20058;-68
2022/08/22 10:31:53;;;;;;;;;;;21.10;99.90;;;;;;5014120;28;20492;-68
2022/08/22 10:34:24;;;;;;;9.45;2.10;;;21.10;99.90;;;;;;5012380;28;20342;-68
2022/08/22 10:37:16;;;;;;;11.73;2.53;;;21.10;99.90;;;;;;5013637;28;20560;-68
2022/08/22 10:39:46;;;;;;;;;;;21.20;99.90;;;;;;5014097;28;20084;-68
2022/08/22 10:42:18;;;;;;;6.60;2.40;;;21.30;99.90;;;;;;5012272;28;20000;-68
2022/08/22 10:44:58;;;;;;;7.78;2.20;;;21.30;99.90;;;;;;5013246;28;20496;-68
2022/08/22 10:47:38;;;;;;;12.63;2.50;;;21.40;99.90;;;;;;5012021;28;20427;-68
2022/08/22 10:50:31;;;;;;;11.15;2.35;;;21.60;99.90;;;;;;5013377;28;20049;-68
2022/08/22 10:55:57;;;;;;;9.20;2.20;;;21.70;99.90;;;;;;5013028;28;20524;-68
2022/08/22 10:58:26;;;;;;;7.50;2.33;;;21.80;99.90;;;;;;5013354;28;20044;-68
2022/08/22 11:00:57;;;;;;;7.95;2.10;;;21.70;99.90;;;;;;5013007;28;20045;-68
2022/08/22 11:03:44;;;;;;;11.48;2.60;;;21.80;99.90;;;;;;5013077;28;20113;-68
2022/08/22 11:06:26;;;;;;;14.00;2.80;;;22.00;99.90;;;;;;5013214;28;20116;-68
2022/08/22 11:09:11;;;;;;;9.98;2.20;;;22.20;99.90;;;;;;5012915;28;20180;-68
2022/08/22 11:11:46;;;;;;;9.27;2.63;;;22.30;99.90;;;;;;5012909;28;20038;-68
2022/08/22 11:14:23;;;;;;;9.75;2.03;;;22.20;99.90;;;;;;5012693;28;20496;-67
2022/08/22 11:17:15;;;;;;;8.77;2.50;;;22.30;99.90;;;;;;5012998;28;20041;-66
2022/08/22 11:20:00;;;;;;;13.63;3.08;;;22.20;99.90;;;;;;5012775;28;20112;-66
2022/08/22 11:22:43;;;;;;;14.25;2.72;;;22.10;99.90;;;;;;5011750;28;20404;-66
2022/08/22 11:25:27;;;;;;;14.43;2.95;;;22.10;99.90;;;;;;5011459;28;20742;-66
2022/08/22 11:28:31;;;;;;;7.18;2.30;;;22.10;99.90;;;;;;5012706;28;20149;-66
2022/08/22 11:31:02;;;;;;;12.13;2.75;;;22.00;99.90;;;;;;5012607;28;20550;-67
2022/08/22 11:33:34;;;;;;;6.85;2.42;;;22.10;99.90;;;;;;5012636;28;20182;-67
2022/08/22 11:36:39;;;;;;;6.35;2.22;;;22.20;99.90;;;;;;5011075;28;20052;-67
2022/08/22 11:39:12;;;;;;;11.90;2.60;;;22.30;99.90;;;;;;5012767;28;20538;-67
2022/08/22 11:42:00;;;;;;;11.10;2.75;;;22.30;99.90;;;;;;5000407;28;20482;-67
2022/08/22 11:44:34;;;;;;;12.90;2.88;;;22.40;99.90;;;;;;5021872;28;20097;-67
2022/08/22 11:47:09;;;;;;;12.52;2.85;;;22.40;99.90;;;;;;5019920;28;20046;-67
2022/08/22 11:50:04;;;;;;;14.50;3.13;;;22.40;99.90;;;;;;5021250;28;20042;-67
2022/08/22 11:52:43;;;;;;;6.75;2.38;;;22.40;99.90;;;;;;5010824;28;20046;-67
2022/08/22 11:55:15;;;;;;;8.93;2.63;;;22.40;99.90;;;;;;5020328;28;20037;-67
2022/08/22 11:57:57;;;;;;;10.40;2.70;;;22.40;99.90;;;;;;5020146;28;20029;-67
2022/08/22 12:00:37;;;;;;;12.65;2.72;;;22.50;99.90;;;;;;5015623;28;20049;-67
2022/08/22 12:03:23;;;;;;;8.32;2.88;;;22.60;99.90;;;;;;5019794;28;20049;-66
2022/08/22 12:06:35;;;;;;;8.05;2.50;;;22.50;99.90;;;;;;5015880;28;20135;-67
2022/08/22 12:09:30;;;;;;;11.05;3.22;;;22.60;99.90;;;;;;5008660;28;20052;-67
2022/08/22 12:12:12;;;;;;;11.70;3.20;;;22.60;99.90;;;;;;5031684;28;20037;-67
2022/08/22 12:14:51;;;;;;;11.10;3.20;;;22.70;99.90;;;;;;5031357;28;20069;-67
2022/08/22 12:17:54;;;;;;;14.23;3.38;;;22.70;99.90;;;;;;5030454;28;20399;-67
2022/08/22 12:20:44;;;;;;;10.10;2.70;;;22.80;99.90;;;;;;5030933;28;20045;-69
2022/08/22 12:23:18;;;;;;;8.35;2.97;;;22.70;99.90;;;;;;5018111;28;20058;-68
2022/08/22 12:25:59;;;;;;;11.00;2.83;;;22.70;99.90;;;;;;5011362;28;20046;-67
2022/08/22 12:28:30;;;;;;;9.68;3.00;;;22.60;99.90;;;;;;5010059;28;20518;-67
2022/08/22 12:31:12;;;;;;;12.45;3.13;;;22.60;99.90;;;;;;5011611;28;20038;-67
2022/08/22 12:33:53;;;;;;;11.90;3.45;;;22.60;99.90;;;;;;5011545;28;20451;-67
2022/08/22 12:36:49;;;;;;;11.02;3.40;;;22.70;99.90;;;;;;5010465;28;20543;-67
2022/08/22 12:39:49;;;;;;;11.43;3.00;;;22.70;99.90;;;;;;5011446;28;20503;-67
2022/08/22 12:42:50;;;;;;;10.63;2.97;;;22.80;99.90;;;;;;5011414;28;20053;-67
2022/08/22 12:45:42;;;;;;;10.70;3.45;;;22.70;99.90;;;;;;4974551;28;20141;-67
2022/08/22 12:48:42;;;;;;;11.13;3.00;;;22.90;99.90;;;;;;5011350;28;20041;-67
2022/08/22 12:51:26;;;;;;;12.65;3.72;;;22.90;99.90;;;;;;5011359;28;20049;-67
2022/08/22 12:54:26;;;;;;;7.65;2.92;;;22.90;99.90;;;;;;5010795;28;20042;-67
2022/08/22 12:57:08;;;;;;;9.80;2.45;;;22.90;99.90;;;;;;4995204;28;20054;-67
2022/08/22 12:59:45;;;;;;;8.75;2.80;;;23.10;99.90;;;;;;5010056;28;20053;-66
2022/08/22 13:02:28;;;;;;;9.43;2.85;;;23.00;99.90;;;;;;5011328;28;20046;-67
2022/08/22 13:04:58;;;;;;;10.88;3.03;;;23.20;99.90;;;;;;5010839;28;20056;-66
2022/08/22 13:07:30;;;;;;;10.95;3.45;;;23.20;99.90;;;;;;5010958;28;20041;-67
2022/08/22 13:10:31;;;;;;;11.18;3.03;;;23.20;99.90;;;;;;5010775;28;20042;-67
2022/08/22 13:12:58;;;;;;;13.25;3.22;;;23.30;99.90;;;;;;5010066;28;20164;-67
2022/08/22 13:15:39;;;;;;;9.98;2.63;;;23.50;99.90;;;;;;5015773;28;20045;-67
2022/08/22 13:18:14;;;;;;;15.00;3.08;;;23.50;99.90;;;;;;5017741;28;20380;-67
2022/08/22 13:20:44;;;;;;;11.25;3.33;;;23.50;99.90;;;;;;5017371;28;20530;-67
2022/08/22 13:23:43;;;;;;;13.20;2.70;;;23.40;99.90;;;;;;5017574;28;20131;-67
2022/08/22 13:26:19;;;;;;;10.75;2.80;;;23.40;99.90;;;;;;5017231;28;20102;-67
2022/08/22 13:28:55;;;;;;;10.82;3.15;;;23.50;99.90;;;;;;5017402;28;20049;-67
2022/08/22 13:31:34;;;;;;;9.70;2.85;;;23.50;99.90;;;;;;5017342;28;20045;-67
2022/08/22 13:34:11;;;;;;;13.60;3.42;;;23.50;99.90;;;;;;5015994;28;20054;-67
2022/08/22 13:36:46;;;;;;;8.50;3.08;;;23.50;99.90;;;;;;5017471;28;20042;-67
2022/08/22 13:39:12;;;;;;;15.82;3.55;;;23.50;99.90;;;;;;5015896;28;20046;-67
2022/08/22 13:41:46;;;;;;;8.60;2.63;;;23.40;99.90;;;;;;5017206;28;20045;-67
2022/08/22 13:44:19;;;;;;;7.60;2.33;;;23.50;99.90;;;;;;5015699;28;20077;-67
2022/08/22 13:46:46;;;;;;;10.60;3.20;;;23.50;99.90;;;;;;5017115;28;20057;-67
2022/08/22 13:49:17;;;;;;;9.38;2.70;;;23.50;99.90;;;;;;5017278;28;20045;-67
2022/08/22 13:51:54;;;;;;;12.02;3.25;;;23.50;99.90;;;;;;5017282;28;20077;-67
2022/08/22 13:54:40;;;;;;;15.20;2.92;;;23.60;99.90;;;;;;5031994;28;20048;-67
2022/08/22 13:57:24;;;;;;;7.22;2.90;;;23.70;99.90;;;;;;5016969;28;20073;-67
2022/08/22 14:00:05;;;;;;;11.93;2.90;;;23.70;99.90;;;;;;5017263;28;20045;-67
2022/08/22 14:02:58;;;;;;;10.77;2.70;;;23.70;99.90;;;;;;5032470;28;20041;-67